createdAt,value
2018-05-25T00:00:52.123Z,16.50
2018-05-25T00:04:56.085Z,16.40
2018-05-25T00:08:59.027Z,16.40
2018-05-25T00:13:01.807Z,16.40
2018-05-25T00:17:04.408Z,16.40
2018-05-25T00:21:06.987Z,16.40
2018-05-25T00:25:09.623Z,16.40
2018-05-25T00:29:12.352Z,16.50
2018-05-25T00:33:15.548Z,16.50
2018-05-25T00:37:20.103Z,16.50
2018-05-25T00:41:28.616Z,16.50
2018-05-25T00:45:31.583Z,16.50
2018-05-25T00:49:34.167Z,16.70
2018-05-25T00:53:36.691Z,16.80
2018-05-25T00:57:39.786Z,16.80
2018-05-25T01:01:43.174Z,16.90
2018-05-25T01:05:48.492Z,16.80
2018-05-25T01:10:00.546Z,16.90
2018-05-25T01:14:03.189Z,17.00
2018-05-25T01:18:05.721Z,17.00
2018-05-25T01:22:08.316Z,17.10
2018-05-25T01:26:10.855Z,17.10
2018-05-25T01:30:19.363Z,17.10
2018-05-25T01:34:23.098Z,17.10
2018-05-25T01:38:26.534Z,17.00
2018-05-25T01:42:31.665Z,17.00
2018-05-25T01:46:34.272Z,16.90
2018-05-25T01:50:39.490Z,16.80
2018-05-25T01:54:42.069Z,16.80
2018-05-25T01:58:45.539Z,16.90
2018-05-25T02:02:51.803Z,17.00
2018-05-25T02:06:56.207Z,17.00
2018-05-25T02:11:01.311Z,17.00
2018-05-25T02:15:03.844Z,17.00
2018-05-25T02:19:06.417Z,17.00
2018-05-25T02:23:15.207Z,16.90
2018-05-25T02:27:20.354Z,17.00
2018-05-25T02:31:23.834Z,16.90
2018-05-25T02:35:27.999Z,16.80
2018-05-25T02:39:32.823Z,16.90
2018-05-25T02:43:35.467Z,16.90
2018-05-25T02:47:38.827Z,17.00
2018-05-25T02:51:48.794Z,17.00
2018-05-25T02:55:52.878Z,17.00
2018-05-25T02:59:56.226Z,16.90
2018-05-25T03:04:03.499Z,16.80
2018-05-25T03:08:06.067Z,16.90
2018-05-25T03:12:08.663Z,16.90
2018-05-25T03:16:16.187Z,17.00
2018-05-25T03:20:20.124Z,16.90
2018-05-25T03:24:23.535Z,16.80
2018-05-25T03:28:31.478Z,16.80
2018-05-25T03:32:34.832Z,17.00
2018-05-25T03:36:37.370Z,16.90
2018-05-25T03:40:39.939Z,17.10
2018-05-25T03:44:42.493Z,17.00
2018-05-25T03:48:50.931Z,17.10
2018-05-25T03:52:55.213Z,17.10
2018-05-25T03:56:58.648Z,17.00
2018-05-25T04:01:13.640Z,17.00
2018-05-25T04:05:17.452Z,16.90
2018-05-25T04:09:21.758Z,16.90
2018-05-25T04:13:25.518Z,16.90
2018-05-25T04:17:29.583Z,17.00
2018-05-25T04:21:34.912Z,17.10
2018-05-25T04:25:40.555Z,17.10
2018-05-25T04:29:43.714Z,17.10
2018-05-25T04:33:46.624Z,17.10
2018-05-25T04:37:52.028Z,17.20
2018-05-25T04:41:55.855Z,17.30
2018-05-25T04:46:01.024Z,17.30
2018-05-25T04:50:03.573Z,17.20
2018-05-25T04:54:14.161Z,17.20
2018-05-25T04:58:19.617Z,17.10
2018-05-25T05:02:23.644Z,17.00
2018-05-25T05:06:26.649Z,17.00
2018-05-25T05:10:29.847Z,17.00
2018-05-25T05:14:32.717Z,17.00
2018-05-25T05:18:49.831Z,16.90
2018-05-25T05:22:53.141Z,16.90
2018-05-25T05:26:57.288Z,17.00
2018-05-25T05:31:00.253Z,16.90
2018-05-25T05:35:03.698Z,17.00
2018-05-25T05:39:14.999Z,17.00
2018-05-25T05:43:20.890Z,17.10
2018-05-25T05:47:25.341Z,17.10
2018-05-25T05:51:31.748Z,17.00
2018-05-25T05:55:34.283Z,17.00
2018-05-25T05:59:37.286Z,17.00
2018-05-25T06:03:40.578Z,17.00
2018-05-25T06:07:43.928Z,16.90
2018-05-25T06:11:49.002Z,16.90
2018-05-25T06:15:52.830Z,16.90
2018-05-25T06:19:56.932Z,16.80
2018-05-25T06:24:02.529Z,17.20
2018-05-25T06:28:05.083Z,17.20
2018-05-25T06:32:07.780Z,17.20
2018-05-25T06:36:10.323Z,17.20
2018-05-25T06:40:14.027Z,17.20
2018-05-25T06:44:18.318Z,17.20
2018-05-25T06:48:22.003Z,17.30
2018-05-25T06:52:25.832Z,17.50
2018-05-25T06:56:29.132Z,17.40
2018-05-25T07:00:31.880Z,17.50
2018-05-25T07:04:34.450Z,17.50
2018-05-25T07:08:36.999Z,17.50
2018-05-25T07:12:39.566Z,17.60
2018-05-25T07:16:42.094Z,17.60
2018-05-25T07:20:44.656Z,17.60
2018-05-25T07:24:47.833Z,17.60
2018-05-25T07:28:51.115Z,17.60
2018-05-25T07:32:53.851Z,17.60
2018-05-25T07:41:44.251Z,17.70
2018-05-25T07:45:47.630Z,17.80
2018-05-25T07:49:51.442Z,17.80
2018-05-25T07:53:54.504Z,17.80
2018-05-25T07:57:57.746Z,17.80
2018-05-25T08:02:03.327Z,17.90
2018-05-25T08:06:17.291Z,18.00
2018-05-25T08:10:21.055Z,18.10
2018-05-25T08:14:24.004Z,18.20
2018-05-25T08:18:26.955Z,18.30
2018-05-25T08:22:32.411Z,18.40
2018-05-25T08:26:34.967Z,18.30
2018-05-25T08:30:45.413Z,18.40
2018-05-25T08:34:50.502Z,18.30
2018-05-25T08:38:53.783Z,18.40
2018-05-25T08:42:57.148Z,18.50
2018-05-25T08:47:01.232Z,18.60
2018-05-25T08:51:04.559Z,18.70
2018-05-25T08:55:07.151Z,18.60
2018-05-25T08:59:10.490Z,18.80
2018-05-25T09:03:13.157Z,18.80
2018-05-25T09:07:16.275Z,19.00
2018-05-25T09:11:19.978Z,19.10
2018-05-25T09:15:23.018Z,19.40
2018-05-25T09:19:26.788Z,19.60
2018-05-25T09:23:32.551Z,19.50
2018-05-25T09:27:43.612Z,19.80
2018-05-25T09:31:46.742Z,20.10
2018-05-25T09:35:51.085Z,20.70
2018-05-25T09:39:55.154Z,21.70
2018-05-25T09:43:59.551Z,22.10
2018-05-25T09:48:03.362Z,22.50
2018-05-25T09:52:05.923Z,23.00
2018-05-25T09:56:08.526Z,23.10
2018-05-25T10:00:19.055Z,22.90
2018-05-25T10:04:22.869Z,22.80
2018-05-25T10:08:25.954Z,23.20
2018-05-25T10:12:28.982Z,22.90
2018-05-25T10:16:32.537Z,22.70
2018-05-25T10:20:35.106Z,23.10
2018-05-25T10:24:37.650Z,23.60
2018-05-25T10:28:40.280Z,23.50
2018-05-25T10:32:42.787Z,23.60
2018-05-25T10:36:45.690Z,23.80
2018-05-25T10:40:50.858Z,23.80
2018-05-25T10:44:53.698Z,23.70
2018-05-25T10:48:56.979Z,24.00
2018-05-25T10:52:59.944Z,24.30
2018-05-25T10:57:03.435Z,24.40
2018-05-25T11:01:06.407Z,24.10
2018-05-25T11:05:18.703Z,24.00
2018-05-25T11:09:27.303Z,23.90
2018-05-25T11:13:32.410Z,24.00
2018-05-25T11:17:34.962Z,24.00
2018-05-25T11:21:37.489Z,23.70
2018-05-25T11:25:40.055Z,23.60
2018-05-25T11:29:51.707Z,24.00
2018-05-25T11:33:56.503Z,23.90
2018-05-25T11:38:02.564Z,24.20
2018-05-25T11:42:09.370Z,24.50
2018-05-25T11:46:11.891Z,24.90
2018-05-25T11:50:16.567Z,25.10
2018-05-25T11:54:30.961Z,25.20
2018-05-25T11:58:33.822Z,25.00
2018-05-25T12:02:36.378Z,24.90
2018-05-25T12:06:39.062Z,24.70
2018-05-25T12:10:41.605Z,24.40
2018-05-25T12:14:49.589Z,24.20
2018-05-25T12:18:54.353Z,24.20
2018-05-25T12:23:02.528Z,24.00
2018-05-25T12:27:09.719Z,24.00
2018-05-25T12:31:12.284Z,24.00
2018-05-25T12:35:15.846Z,23.90
2018-05-25T12:39:21.556Z,24.00
2018-05-25T12:43:25.420Z,24.10
2018-05-25T12:47:37.102Z,24.00
2018-05-25T12:51:39.647Z,24.00
2018-05-25T12:55:42.994Z,23.70
2018-05-25T12:59:46.360Z,23.70
2018-05-25T13:03:50.176Z,24.00
2018-05-25T13:07:53.632Z,23.90
2018-05-25T13:11:57.488Z,24.10
2018-05-25T13:16:02.899Z,23.90
2018-05-25T13:20:13.148Z,23.80
2018-05-25T13:24:35.008Z,23.80
2018-05-25T13:28:37.782Z,23.70
2018-05-25T13:32:40.313Z,23.80
2018-05-25T13:36:42.966Z,23.90
2018-05-25T13:40:46.964Z,23.70
2018-05-25T13:44:51.011Z,23.30
2018-05-25T13:48:53.864Z,23.30
2018-05-25T13:52:56.860Z,23.40
2018-05-25T13:56:59.599Z,23.50
2018-05-25T14:01:02.685Z,23.50
2018-05-25T14:05:05.972Z,24.00
2018-05-25T14:09:08.722Z,24.00
2018-05-25T14:13:11.361Z,24.10
2018-05-25T14:17:14.613Z,24.00
2018-05-25T14:21:20.214Z,24.00
2018-05-25T14:25:25.071Z,23.90
2018-05-25T14:29:32.644Z,24.00
2018-05-25T14:33:47.706Z,23.90
2018-05-25T14:37:54.357Z,23.80
2018-05-25T14:42:03.389Z,23.80
2018-05-25T14:46:06.589Z,23.80
2018-05-25T14:50:09.185Z,23.90
2018-05-25T14:54:14.391Z,24.00
2018-05-25T14:58:18.317Z,24.00
2018-05-25T15:02:22.225Z,23.70
2018-05-25T15:06:24.944Z,23.70
2018-05-25T15:10:29.103Z,23.70
2018-05-25T15:14:32.304Z,23.70
2018-05-25T15:18:34.847Z,23.50
2018-05-25T15:22:39.438Z,23.50
2018-05-25T15:26:50.685Z,23.20
2018-05-25T15:30:53.961Z,23.20
2018-05-25T15:34:57.457Z,23.20
2018-05-25T15:39:01.450Z,23.30
2018-05-25T15:43:14.622Z,23.40
2018-05-25T15:47:18.602Z,23.30
2018-05-25T15:51:21.590Z,23.50
2018-05-25T15:55:24.283Z,23.60
2018-05-25T15:59:26.932Z,23.60
2018-05-25T16:03:29.703Z,23.60
2018-05-25T16:07:33.195Z,23.70
2018-05-25T16:11:43.857Z,23.70
2018-05-25T16:15:48.107Z,23.70
2018-05-25T16:19:53.579Z,23.70
2018-05-25T16:23:56.368Z,23.60
2018-05-25T16:27:59.127Z,23.50
2018-05-25T16:32:01.704Z,23.40
2018-05-25T16:36:04.382Z,23.30
2018-05-25T16:40:07.710Z,23.40
2018-05-25T16:44:19.005Z,23.30
2018-05-25T16:48:22.367Z,23.40
2018-05-25T16:52:25.455Z,23.30
2018-05-25T16:56:28.604Z,23.10
2018-05-25T17:00:31.794Z,23.10
2018-05-25T17:04:34.251Z,23.20
2018-05-25T17:08:37.845Z,23.10
2018-05-25T17:12:41.150Z,23.10
2018-05-25T17:16:43.718Z,23.00
2018-05-25T17:20:50.149Z,23.10
2018-05-25T17:24:53.315Z,22.90
2018-05-25T17:29:29.543Z,22.60
2018-05-25T17:33:32.177Z,22.60
2018-05-25T17:37:42.843Z,22.40
2018-05-25T17:41:45.747Z,22.50
2018-05-25T17:45:53.232Z,22.60
2018-05-25T17:50:12.551Z,22.50
2018-05-25T17:54:21.130Z,22.50
2018-05-25T17:58:25.481Z,22.50
2018-05-25T18:02:28.335Z,22.40
2018-05-25T18:06:47.937Z,22.40
2018-05-25T18:10:53.126Z,22.30
2018-05-25T18:14:57.684Z,22.40
2018-05-25T18:19:01.839Z,22.20
2018-05-25T18:23:04.595Z,22.20
2018-05-25T18:27:09.806Z,22.10
2018-05-25T18:31:19.888Z,22.10
2018-05-25T18:35:35.706Z,22.00
2018-05-25T18:39:38.593Z,21.90
2018-05-25T18:43:41.139Z,21.80
2018-05-25T18:47:49.672Z,21.70
2018-05-25T18:51:53.452Z,21.70
2018-05-25T18:55:57.092Z,21.70
2018-05-25T19:00:03.062Z,21.60
2018-05-25T19:04:05.638Z,21.50
2018-05-25T19:08:08.210Z,21.40
2018-05-25T19:12:21.682Z,21.40
2018-05-25T19:16:25.360Z,21.30
2018-05-25T19:20:29.507Z,21.20
2018-05-25T19:24:32.838Z,21.00
2018-05-25T19:28:37.391Z,20.90
2018-05-25T19:32:44.283Z,20.90
2018-05-25T19:36:47.297Z,20.70
2018-05-25T19:40:50.212Z,20.70
2018-05-25T19:44:54.226Z,20.50
2018-05-25T19:48:57.623Z,20.30
2018-05-25T19:53:00.297Z,20.20
2018-05-25T19:57:03.841Z,20.20
2018-05-25T20:01:13.114Z,20.20
2018-05-25T20:05:16.523Z,20.10
2018-05-25T20:09:20.080Z,20.00
2018-05-25T20:13:22.733Z,20.00
2018-05-25T20:17:25.408Z,20.00
2018-05-25T20:21:28.193Z,19.90
2018-05-25T20:25:31.531Z,19.70
2018-05-25T20:29:47.344Z,19.40
2018-05-25T20:33:50.201Z,19.40
2018-05-25T20:37:53.875Z,19.40
2018-05-25T20:41:57.374Z,19.30
2018-05-25T20:45:59.906Z,19.30
2018-05-25T20:50:02.535Z,19.20
2018-05-25T20:54:05.875Z,18.90
2018-05-25T20:58:09.355Z,18.90
2018-05-25T21:02:18.137Z,18.80
2018-05-25T21:06:20.795Z,18.80
2018-05-25T21:10:23.512Z,18.90
2018-05-25T21:14:27.075Z,18.70
2018-05-25T21:18:29.686Z,18.70
2018-05-25T21:22:33.044Z,18.60
2018-05-25T21:26:35.562Z,18.50
2018-05-25T21:30:38.211Z,18.50
2018-05-25T21:34:47.568Z,18.40
2018-05-25T21:38:51.223Z,18.20
2018-05-25T21:42:54.612Z,18.10
2018-05-25T21:46:58.089Z,18.00
2018-05-25T21:51:00.710Z,18.20
2018-05-25T21:55:03.275Z,18.10
2018-05-25T21:59:05.872Z,18.10
2018-05-25T22:03:14.294Z,18.10
2018-05-25T22:07:17.144Z,18.10
2018-05-25T22:11:20.319Z,18.00
2018-05-25T22:15:23.844Z,17.90
2018-05-25T22:19:27.625Z,17.90
2018-05-25T22:23:30.244Z,17.80
2018-05-25T22:27:33.567Z,17.90
2018-05-25T22:31:36.855Z,17.80
2018-05-25T22:35:39.519Z,17.80
2018-05-25T22:39:42.124Z,17.80
2018-05-25T22:43:56.957Z,17.80
2018-05-25T22:48:11.386Z,17.70
2018-05-25T22:56:57.179Z,17.40
2018-05-25T23:01:00.604Z,17.40
2018-05-25T23:05:03.120Z,17.40
2018-05-25T23:09:12.021Z,17.40
2018-05-25T23:13:14.611Z,17.30
2018-05-25T23:17:18.239Z,17.40
2018-05-25T23:21:22.351Z,17.30
2018-05-25T23:25:25.351Z,17.20
2018-05-25T23:29:28.415Z,17.20
2018-05-25T23:33:31.937Z,17.00
2018-05-25T23:37:34.465Z,16.90
2018-05-25T23:41:37.054Z,17.00
2018-05-25T23:45:39.586Z,17.10
2018-05-25T23:49:44.657Z,16.90
2018-05-25T23:53:49.145Z,16.80
2018-05-25T23:57:52.809Z,16.90
